sensor_id;sensor_type;location;lat;lon;timestamp;pressure;altitude;pressure_sealevel;temperature;humidity
28701;BME280;15877;52.344;16.790;2022-08-19T00:01:43;100034.98;;;26.82;60.19
28701;BME280;15877;52.344;16.790;2022-08-19T00:04:25;100030.73;;;26.82;60.20
28701;BME280;15877;52.344;16.790;2022-08-19T00:06:59;100018.58;;;26.76;60.21
28701;BME280;15877;52.344;16.790;2022-08-19T00:09:31;100031.95;;;26.80;60.43
28701;BME280;15877;52.344;16.790;2022-08-19T00:12:05;100027.96;;;26.80;60.45
28701;BME280;15877;52.344;16.790;2022-08-19T00:14:38;100026.09;;;26.80;60.44
28701;BME280;15877;52.344;16.790;2022-08-19T00:17:11;100006.64;;;26.67;60.44
28701;BME280;15877;52.344;16.790;2022-08-19T00:19:44;100023.88;;;26.81;60.38
28701;BME280;15877;52.344;16.790;2022-08-19T00:22:16;100027.70;;;26.78;60.57
28701;BME280;15877;52.344;16.790;2022-08-19T00:24:50;100012.37;;;26.71;60.54
28701;BME280;15877;52.344;16.790;2022-08-19T00:27:24;100020.21;;;26.79;60.69
28701;BME280;15877;52.344;16.790;2022-08-19T00:29:58;100018.89;;;26.78;60.50
28701;BME280;15877;52.344;16.790;2022-08-19T00:32:32;100021.52;;;26.77;60.43
28701;BME280;15877;52.344;16.790;2022-08-19T00:35:07;100023.98;;;26.78;60.43
28701;BME280;15877;52.344;16.790;2022-08-19T00:37:40;100025.73;;;26.76;60.33
28701;BME280;15877;52.344;16.790;2022-08-19T00:40:15;100028.59;;;26.76;60.46
28701;BME280;15877;52.344;16.790;2022-08-19T00:42:48;100027.63;;;26.77;60.33
28701;BME280;15877;52.344;16.790;2022-08-19T00:45:27;100022.83;;;26.77;60.51
28701;BME280;15877;52.344;16.790;2022-08-19T00:48:02;100021.54;;;26.75;60.59
28701;BME280;15877;52.344;16.790;2022-08-19T00:50:45;100012.57;;;26.77;60.46
28701;BME280;15877;52.344;16.790;2022-08-19T00:53:24;100008.95;;;26.78;60.60
28701;BME280;15877;52.344;16.790;2022-08-19T00:56:01;100006.48;;;26.77;60.63
28701;BME280;15877;52.344;16.790;2022-08-19T00:58:39;100008.90;;;26.76;60.37
28701;BME280;15877;52.344;16.790;2022-08-19T01:01:12;100008.05;;;26.75;60.53
28701;BME280;15877;52.344;16.790;2022-08-19T01:03:45;99989.55;;;26.66;60.61
28701;BME280;15877;52.344;16.790;2022-08-19T01:06:28;99999.06;;;26.74;60.58
28701;BME280;15877;52.344;16.790;2022-08-19T01:09:01;99996.05;;;26.74;60.63
28701;BME280;15877;52.344;16.790;2022-08-19T01:11:36;99999.23;;;26.74;60.65
28701;BME280;15877;52.344;16.790;2022-08-19T01:14:11;99998.37;;;26.73;60.79
28701;BME280;15877;52.344;16.790;2022-08-19T01:16:44;99997.34;;;26.74;60.81
28701;BME280;15877;52.344;16.790;2022-08-19T01:19:29;99995.52;;;26.73;60.70
28701;BME280;15877;52.344;16.790;2022-08-19T01:22:19;99994.16;;;26.73;60.73
28701;BME280;15877;52.344;16.790;2022-08-19T01:25:02;99999.44;;;26.75;60.81
28701;BME280;15877;52.344;16.790;2022-08-19T01:27:47;100005.96;;;26.74;60.74
28701;BME280;15877;52.344;16.790;2022-08-19T01:30:26;99998.63;;;26.73;60.65
28701;BME280;15877;52.344;16.790;2022-08-19T01:32:58;99990.30;;;26.72;60.92
28701;BME280;15877;52.344;16.790;2022-08-19T01:35:32;99982.80;;;26.72;60.59
28701;BME280;15877;52.344;16.790;2022-08-19T01:38:07;99980.02;;;26.68;60.81
28701;BME280;15877;52.344;16.790;2022-08-19T01:40:42;99981.65;;;26.69;60.72
28701;BME280;15877;52.344;16.790;2022-08-19T01:43:14;99974.63;;;26.70;60.71
28701;BME280;15877;52.344;16.790;2022-08-19T01:45:47;99971.84;;;26.68;60.67
28701;BME280;15877;52.344;16.790;2022-08-19T01:48:20;99971.70;;;26.64;60.69
28701;BME280;15877;52.344;16.790;2022-08-19T01:50:53;99967.83;;;26.62;60.75
28701;BME280;15877;52.344;16.790;2022-08-19T01:53:26;99962.70;;;26.60;60.75
28701;BME280;15877;52.344;16.790;2022-08-19T01:56:04;99966.13;;;26.60;60.44
28701;BME280;15877;52.344;16.790;2022-08-19T01:58:39;99960.95;;;26.58;60.79
28701;BME280;15877;52.344;16.790;2022-08-19T02:01:13;99958.73;;;26.55;60.80
28701;BME280;15877;52.344;16.790;2022-08-19T02:03:46;99958.59;;;26.56;60.69
28701;BME280;15877;52.344;16.790;2022-08-19T02:06:19;99957.50;;;26.52;60.80
28701;BME280;15877;52.344;16.790;2022-08-19T02:08:56;99955.61;;;26.53;60.85
28701;BME280;15877;52.344;16.790;2022-08-19T02:11:30;99947.23;;;26.51;60.94
28701;BME280;15877;52.344;16.790;2022-08-19T02:14:07;99952.01;;;26.51;60.88
28701;BME280;15877;52.344;16.790;2022-08-19T02:16:39;99951.42;;;26.48;61.10
28701;BME280;15877;52.344;16.790;2022-08-19T02:19:12;99950.58;;;26.42;61.45
28701;BME280;15877;52.344;16.790;2022-08-19T02:21:44;99943.42;;;26.40;61.46
28701;BME280;15877;52.344;16.790;2022-08-19T02:24:16;99934.03;;;26.44;61.25
28701;BME280;15877;52.344;16.790;2022-08-19T02:26:49;99932.02;;;26.45;61.34
28701;BME280;15877;52.344;16.790;2022-08-19T02:29:21;99925.89;;;26.44;61.23
28701;BME280;15877;52.344;16.790;2022-08-19T02:31:53;99925.23;;;26.41;61.48
28701;BME280;15877;52.344;16.790;2022-08-19T02:34:26;99913.46;;;26.34;61.33
28701;BME280;15877;52.344;16.790;2022-08-19T02:36:58;99922.18;;;26.42;61.21
28701;BME280;15877;52.344;16.790;2022-08-19T02:39:33;99926.36;;;26.46;61.14
28701;BME280;15877;52.344;16.790;2022-08-19T02:42:06;99927.60;;;26.46;61.19
28701;BME280;15877;52.344;16.790;2022-08-19T02:44:38;99920.49;;;26.43;61.40
28701;BME280;15877;52.344;16.790;2022-08-19T02:47:12;99922.49;;;26.42;61.43
28701;BME280;15877;52.344;16.790;2022-08-19T02:49:45;99917.96;;;26.43;61.50
28701;BME280;15877;52.344;16.790;2022-08-19T02:52:20;99912.95;;;26.41;61.55
28701;BME280;15877;52.344;16.790;2022-08-19T02:54:54;99893.81;;;26.36;61.01
28701;BME280;15877;52.344;16.790;2022-08-19T02:57:29;99907.86;;;26.48;60.92
28701;BME280;15877;52.344;16.790;2022-08-19T03:00:02;99909.65;;;26.47;61.08
28701;BME280;15877;52.344;16.790;2022-08-19T03:02:35;99913.92;;;26.46;61.43
28701;BME280;15877;52.344;16.790;2022-08-19T03:05:09;99905.23;;;26.46;61.06
28701;BME280;15877;52.344;16.790;2022-08-19T03:07:42;99901.85;;;26.43;61.22
28701;BME280;15877;52.344;16.790;2022-08-19T03:10:14;99904.08;;;26.46;60.98
28701;BME280;15877;52.344;16.790;2022-08-19T03:12:46;99904.05;;;26.46;60.99
28701;BME280;15877;52.344;16.790;2022-08-19T03:15:21;99906.69;;;26.44;61.19
28701;BME280;15877;52.344;16.790;2022-08-19T03:17:53;99906.70;;;26.40;61.35
28701;BME280;15877;52.344;16.790;2022-08-19T03:20:27;99904.55;;;26.41;61.20
28701;BME280;15877;52.344;16.790;2022-08-19T03:22:59;99904.75;;;26.40;61.26
28701;BME280;15877;52.344;16.790;2022-08-19T03:25:39;99893.19;;;26.37;61.27
28701;BME280;15877;52.344;16.790;2022-08-19T03:28:14;99894.33;;;26.38;61.34
28701;BME280;15877;52.344;16.790;2022-08-19T03:30:58;99890.84;;;26.37;61.29
28701;BME280;15877;52.344;16.790;2022-08-19T03:33:32;99896.17;;;26.35;61.21
28701;BME280;15877;52.344;16.790;2022-08-19T03:36:10;99894.52;;;26.21;61.50
28701;BME280;15877;52.344;16.790;2022-08-19T03:38:44;99910.70;;;26.26;61.69
28701;BME280;15877;52.344;16.790;2022-08-19T03:41:19;99911.52;;;26.26;61.65
28701;BME280;15877;52.344;16.790;2022-08-19T03:43:50;99907.65;;;26.27;61.49
28701;BME280;15877;52.344;16.790;2022-08-19T03:46:29;99898.54;;;26.27;61.57
28701;BME280;15877;52.344;16.790;2022-08-19T03:49:03;99900.08;;;26.24;61.57
28701;BME280;15877;52.344;16.790;2022-08-19T03:51:40;99900.77;;;26.20;61.81
28701;BME280;15877;52.344;16.790;2022-08-19T03:54:14;99898.94;;;26.21;61.79
28701;BME280;15877;52.344;16.790;2022-08-19T03:56:50;99897.33;;;26.17;61.83
28701;BME280;15877;52.344;16.790;2022-08-19T03:59:25;99896.47;;;26.13;62.05
28701;BME280;15877;52.344;16.790;2022-08-19T04:02:00;99904.63;;;26.13;62.17
28701;BME280;15877;52.344;16.790;2022-08-19T04:04:32;99907.45;;;26.14;61.93
28701;BME280;15877;52.344;16.790;2022-08-19T04:07:06;99907.02;;;26.10;62.21
28701;BME280;15877;52.344;16.790;2022-08-19T04:09:39;99907.09;;;26.09;62.29
28701;BME280;15877;52.344;16.790;2022-08-19T04:12:11;99901.16;;;26.10;62.19
28701;BME280;15877;52.344;16.790;2022-08-19T04:14:43;99897.10;;;26.07;62.37
28701;BME280;15877;52.344;16.790;2022-08-19T04:17:16;99898.20;;;26.08;62.32
28701;BME280;15877;52.344;16.790;2022-08-19T04:19:48;99901.42;;;26.04;62.62
28701;BME280;15877;52.344;16.790;2022-08-19T04:22:24;99903.67;;;26.04;62.61
28701;BME280;15877;52.344;16.790;2022-08-19T04:24:58;99899.94;;;26.04;62.49
28701;BME280;15877;52.344;16.790;2022-08-19T04:27:30;99906.05;;;26.01;62.71
28701;BME280;15877;52.344;16.790;2022-08-19T04:30:05;99923.02;;;26.01;62.73
28701;BME280;15877;52.344;16.790;2022-08-19T04:32:37;99930.08;;;26.01;62.67
28701;BME280;15877;52.344;16.790;2022-08-19T04:35:12;99931.25;;;26.02;62.67
28701;BME280;15877;52.344;16.790;2022-08-19T04:37:57;99926.63;;;25.97;63.01
28701;BME280;15877;52.344;16.790;2022-08-19T04:40:29;99926.02;;;26.03;62.62
28701;BME280;15877;52.344;16.790;2022-08-19T04:43:20;99922.95;;;26.00;62.85
28701;BME280;15877;52.344;16.790;2022-08-19T04:45:55;99917.04;;;25.98;62.96
28701;BME280;15877;52.344;16.790;2022-08-19T04:48:30;99914.35;;;25.98;63.15
28701;BME280;15877;52.344;16.790;2022-08-19T04:51:08;99918.33;;;25.93;63.36
28701;BME280;15877;52.344;16.790;2022-08-19T04:53:41;99923.12;;;25.97;63.47
28701;BME280;15877;52.344;16.790;2022-08-19T04:56:15;99913.06;;;25.88;63.27
28701;BME280;15877;52.344;16.790;2022-08-19T04:58:55;99924.33;;;25.97;63.27
28701;BME280;15877;52.344;16.790;2022-08-19T05:01:29;99904.01;;;25.86;63.27
28701;BME280;15877;52.344;16.790;2022-08-19T05:04:02;99908.64;;;25.93;63.16
28701;BME280;15877;52.344;16.790;2022-08-19T05:06:35;99905.48;;;25.95;63.30
28701;BME280;15877;52.344;16.790;2022-08-19T05:09:08;99908.52;;;25.96;63.30
28701;BME280;15877;52.344;16.790;2022-08-19T05:11:40;99904.52;;;25.96;63.19
28701;BME280;15877;52.344;16.790;2022-08-19T05:14:13;99909.27;;;26.01;63.09
28701;BME280;15877;52.344;16.790;2022-08-19T05:16:45;99911.59;;;25.97;63.29
28701;BME280;15877;52.344;16.790;2022-08-19T05:19:17;99909.36;;;25.92;63.62
28701;BME280;15877;52.344;16.790;2022-08-19T05:22:08;99906.48;;;25.93;63.57
28701;BME280;15877;52.344;16.790;2022-08-19T05:24:58;99906.16;;;25.91;63.78
28701;BME280;15877;52.344;16.790;2022-08-19T05:27:43;99913.47;;;25.93;63.49
28701;BME280;15877;52.344;16.790;2022-08-19T05:30:16;99910.23;;;25.93;63.45
28701;BME280;15877;52.344;16.790;2022-08-19T05:33:09;99916.44;;;25.99;63.52
28701;BME280;15877;52.344;16.790;2022-08-19T05:35:42;99916.20;;;25.99;63.23
28701;BME280;15877;52.344;16.790;2022-08-19T05:38:15;99914.83;;;26.04;63.47
28701;BME280;15877;52.344;16.790;2022-08-19T05:40:47;99905.05;;;26.06;63.66
28701;BME280;15877;52.344;16.790;2022-08-19T05:43:23;99897.78;;;26.10;63.49
28701;BME280;15877;52.344;16.790;2022-08-19T05:45:56;99896.06;;;26.13;63.32
28701;BME280;15877;52.344;16.790;2022-08-19T05:48:29;99891.71;;;26.14;63.36
28701;BME280;15877;52.344;16.790;2022-08-19T05:51:05;99879.76;;;26.16;63.11
28701;BME280;15877;52.344;16.790;2022-08-19T05:53:39;99866.73;;;26.17;63.13
28701;BME280;15877;52.344;16.790;2022-08-19T05:56:13;99866.73;;;26.17;63.30
28701;BME280;15877;52.344;16.790;2022-08-19T05:58:47;99871.44;;;26.19;63.43
28701;BME280;15877;52.344;16.790;2022-08-19T06:01:20;99887.51;;;26.20;63.29
28701;BME280;15877;52.344;16.790;2022-08-19T06:03:53;99897.09;;;26.22;63.71
28701;BME280;15877;52.344;16.790;2022-08-19T06:06:26;99896.61;;;26.26;63.61
28701;BME280;15877;52.344;16.790;2022-08-19T06:08:58;99894.87;;;26.32;63.35
28701;BME280;15877;52.344;16.790;2022-08-19T06:11:36;99888.50;;;26.32;63.40
28701;BME280;15877;52.344;16.790;2022-08-19T06:14:10;99890.29;;;26.35;63.37
28701;BME280;15877;52.344;16.790;2022-08-19T06:16:47;99888.69;;;26.38;63.10
28701;BME280;15877;52.344;16.790;2022-08-19T06:19:22;99891.66;;;26.43;63.00
28701;BME280;15877;52.344;16.790;2022-08-19T06:21:57;99887.88;;;26.39;63.34
28701;BME280;15877;52.344;16.790;2022-08-19T06:24:31;99884.55;;;26.46;63.25
28701;BME280;15877;52.344;16.790;2022-08-19T06:27:04;99880.69;;;26.51;63.07
28701;BME280;15877;52.344;16.790;2022-08-19T06:29:37;99881.35;;;26.56;63.15
28701;BME280;15877;52.344;16.790;2022-08-19T06:32:09;99872.13;;;26.49;62.76
28701;BME280;15877;52.344;16.790;2022-08-19T06:34:42;99885.86;;;26.61;62.40
28701;BME280;15877;52.344;16.790;2022-08-19T06:37:14;99890.84;;;26.66;62.31
28701;BME280;15877;52.344;16.790;2022-08-19T06:39:47;99887.43;;;26.71;62.15
28701;BME280;15877;52.344;16.790;2022-08-19T06:42:20;99888.94;;;26.73;62.22
28701;BME280;15877;52.344;16.790;2022-08-19T06:44:54;99887.70;;;26.76;62.23
28701;BME280;15877;52.344;16.790;2022-08-19T06:47:27;99898.20;;;26.85;61.75
28701;BME280;15877;52.344;16.790;2022-08-19T06:50:00;99892.71;;;26.91;61.67
28701;BME280;15877;52.344;16.790;2022-08-19T06:52:36;99894.85;;;26.91;61.56
28701;BME280;15877;52.344;16.790;2022-08-19T06:55:09;99900.48;;;26.98;61.44
28701;BME280;15877;52.344;16.790;2022-08-19T06:57:41;99912.95;;;26.99;61.63
28701;BME280;15877;52.344;16.790;2022-08-19T07:00:17;99917.85;;;27.03;61.87
28701;BME280;15877;52.344;16.790;2022-08-19T07:02:49;99925.28;;;27.10;62.17
28701;BME280;15877;52.344;16.790;2022-08-19T07:05:28;99921.86;;;27.18;61.09
28701;BME280;15877;52.344;16.790;2022-08-19T07:08:03;99925.73;;;27.20;60.56
28701;BME280;15877;52.344;16.790;2022-08-19T07:10:36;99924.52;;;27.24;60.47
28701;BME280;15877;52.344;16.790;2022-08-19T07:13:12;99926.27;;;27.30;61.31
28701;BME280;15877;52.344;16.790;2022-08-19T07:15:45;99930.05;;;27.35;60.52
28701;BME280;15877;52.344;16.790;2022-08-19T07:18:19;99919.25;;;27.35;60.08
28701;BME280;15877;52.344;16.790;2022-08-19T07:21:01;99929.71;;;27.48;60.22
28701;BME280;15877;52.344;16.790;2022-08-19T07:23:33;99932.98;;;27.56;59.88
28701;BME280;15877;52.344;16.790;2022-08-19T07:26:14;99942.54;;;27.57;60.12
28701;BME280;15877;52.344;16.790;2022-08-19T07:28:47;99950.23;;;27.61;59.70
28701;BME280;15877;52.344;16.790;2022-08-19T07:31:24;99953.38;;;27.66;59.27
28701;BME280;15877;52.344;16.790;2022-08-19T07:34:00;99963.96;;;27.56;59.78
28701;BME280;15877;52.344;16.790;2022-08-19T07:36:34;99966.95;;;27.67;59.67
28701;BME280;15877;52.344;16.790;2022-08-19T07:39:10;99975.20;;;27.70;59.59
28701;BME280;15877;52.344;16.790;2022-08-19T07:41:44;99970.73;;;27.81;59.28
28701;BME280;15877;52.344;16.790;2022-08-19T07:44:17;99972.40;;;27.88;58.77
28701;BME280;15877;52.344;16.790;2022-08-19T07:46:52;99965.04;;;27.93;58.86
28701;BME280;15877;52.344;16.790;2022-08-19T07:49:26;99966.52;;;27.92;58.76
28701;BME280;15877;52.344;16.790;2022-08-19T07:52:00;99965.63;;;28.04;59.03
28701;BME280;15877;52.344;16.790;2022-08-19T07:54:35;99960.95;;;28.10;59.09
28701;BME280;15877;52.344;16.790;2022-08-19T07:57:08;99959.67;;;28.11;58.36
28701;BME280;15877;52.344;16.790;2022-08-19T07:59:40;99949.23;;;28.16;58.36
28701;BME280;15877;52.344;16.790;2022-08-19T08:02:13;99947.42;;;28.28;57.88
28701;BME280;15877;52.344;16.790;2022-08-19T08:04:45;99948.66;;;28.34;58.10
28701;BME280;15877;52.344;16.790;2022-08-19T08:07:35;99947.89;;;28.38;58.10
28701;BME280;15877;52.344;16.790;2022-08-19T08:10:25;99935.97;;;28.36;58.86
28701;BME280;15877;52.344;16.790;2022-08-19T08:12:57;99947.89;;;28.53;58.96
28701;BME280;15877;52.344;16.790;2022-08-19T08:15:40;99945.55;;;28.57;57.38
28701;BME280;15877;52.344;16.790;2022-08-19T08:18:15;99944.40;;;28.58;56.94
28701;BME280;15877;52.344;16.790;2022-08-19T08:20:48;99948.17;;;28.63;57.52
28701;BME280;15877;52.344;16.790;2022-08-19T08:23:20;99952.64;;;28.68;57.24
28701;BME280;15877;52.344;16.790;2022-08-19T08:25:58;99957.90;;;28.76;56.92
28701;BME280;15877;52.344;16.790;2022-08-19T08:28:31;99963.00;;;28.85;57.21
28701;BME280;15877;52.344;16.790;2022-08-19T08:31:04;99962.80;;;28.93;57.23
28701;BME280;15877;52.344;16.790;2022-08-19T08:33:39;99964.14;;;29.05;56.41
28701;BME280;15877;52.344;16.790;2022-08-19T08:36:13;99960.68;;;29.09;56.69
28701;BME280;15877;52.344;16.790;2022-08-19T08:38:46;99959.33;;;29.01;56.57
28701;BME280;15877;52.344;16.790;2022-08-19T08:41:26;99985.11;;;29.15;56.61
28701;BME280;15877;52.344;16.790;2022-08-19T08:44:00;99992.14;;;29.20;56.22
28701;BME280;15877;52.344;16.790;2022-08-19T08:46:37;99978.88;;;29.13;56.39
28701;BME280;15877;52.344;16.790;2022-08-19T08:49:23;99990.35;;;29.27;55.87
28701;BME280;15877;52.344;16.790;2022-08-19T08:52:02;99979.77;;;29.34;55.90
28701;BME280;15877;52.344;16.790;2022-08-19T08:54:41;99971.91;;;29.13;56.31
28701;BME280;15877;52.344;16.790;2022-08-19T08:57:30;99983.90;;;29.28;56.21
28701;BME280;15877;52.344;16.790;2022-08-19T09:00:22;99984.00;;;29.31;55.96
28701;BME280;15877;52.344;16.790;2022-08-19T09:02:56;99983.51;;;29.35;56.33
28701;BME280;15877;52.344;16.790;2022-08-19T09:05:39;99985.19;;;29.45;56.11
28701;BME280;15877;52.344;16.790;2022-08-19T09:08:33;99989.37;;;29.56;55.52
28701;BME280;15877;52.344;16.790;2022-08-19T09:11:11;99988.34;;;29.58;55.36
28701;BME280;15877;52.344;16.790;2022-08-19T09:14:13;99984.04;;;29.68;54.97
28701;BME280;15877;52.344;16.790;2022-08-19T09:17:07;99987.71;;;29.71;54.89
28701;BME280;15877;52.344;16.790;2022-08-19T09:19:51;99988.25;;;29.77;54.45
28701;BME280;15877;52.344;16.790;2022-08-19T09:22:24;99988.81;;;29.72;54.22
28701;BME280;15877;52.344;16.790;2022-08-19T09:24:57;99985.33;;;29.82;54.42
28701;BME280;15877;52.344;16.790;2022-08-19T09:27:30;99981.59;;;29.89;54.14
28701;BME280;15877;52.344;16.790;2022-08-19T09:30:16;99980.45;;;29.96;53.94
28701;BME280;15877;52.344;16.790;2022-08-19T09:32:49;99982.46;;;29.99;53.53
28701;BME280;15877;52.344;16.790;2022-08-19T09:35:25;99981.83;;;30.10;53.44
28701;BME280;15877;52.344;16.790;2022-08-19T09:38:00;99979.08;;;30.13;53.13
28701;BME280;15877;52.344;16.790;2022-08-19T09:40:33;99972.67;;;30.18;53.00
28701;BME280;15877;52.344;16.790;2022-08-19T09:43:08;99965.85;;;30.19;53.33
28701;BME280;15877;52.344;16.790;2022-08-19T09:45:44;99967.67;;;30.30;52.89
28701;BME280;15877;52.344;16.790;2022-08-19T09:48:16;99968.27;;;30.34;52.92
28701;BME280;15877;52.344;16.790;2022-08-19T09:50:53;99975.91;;;30.36;52.92
28701;BME280;15877;52.344;16.790;2022-08-19T09:53:26;99975.27;;;30.50;52.94
28701;BME280;15877;52.344;16.790;2022-08-19T09:56:01;99976.33;;;30.62;52.99
28701;BME280;15877;52.344;16.790;2022-08-19T09:58:34;99969.42;;;30.69;52.32
28701;BME280;15877;52.344;16.790;2022-08-19T10:01:08;99963.90;;;30.76;51.66
28701;BME280;15877;52.344;16.790;2022-08-19T10:03:40;99957.65;;;30.85;51.69
28701;BME280;15877;52.344;16.790;2022-08-19T10:06:12;99961.80;;;30.81;50.59
28701;BME280;15877;52.344;16.790;2022-08-19T10:08:47;99967.05;;;30.88;50.58
28701;BME280;15877;52.344;16.790;2022-08-19T10:11:21;99969.79;;;31.05;50.28
28701;BME280;15877;52.344;16.790;2022-08-19T10:14:06;99970.75;;;31.10;49.85
28701;BME280;15877;52.344;16.790;2022-08-19T10:16:38;99950.13;;;31.07;49.20
28701;BME280;15877;52.344;16.790;2022-08-19T10:19:12;99953.46;;;31.23;49.22
28701;BME280;15877;52.344;16.790;2022-08-19T10:21:55;99943.07;;;31.34;49.41
28701;BME280;15877;52.344;16.790;2022-08-19T10:24:30;99932.88;;;31.40;48.86
28701;BME280;15877;52.344;16.790;2022-08-19T10:27:03;99939.78;;;31.51;48.33
28701;BME280;15877;52.344;16.790;2022-08-19T10:29:38;99940.63;;;31.62;48.73
28701;BME280;15877;52.344;16.790;2022-08-19T10:32:16;99942.05;;;31.70;48.84
28701;BME280;15877;52.344;16.790;2022-08-19T10:35:05;99932.29;;;31.80;49.02
28701;BME280;15877;52.344;16.790;2022-08-19T10:37:39;99922.64;;;31.81;48.99
28701;BME280;15877;52.344;16.790;2022-08-19T10:40:28;99937.83;;;31.90;48.34
28701;BME280;15877;52.344;16.790;2022-08-19T10:43:00;99939.89;;;31.93;48.31
28701;BME280;15877;52.344;16.790;2022-08-19T10:45:33;99936.39;;;32.04;48.09
28701;BME280;15877;52.344;16.790;2022-08-19T10:48:06;99937.75;;;32.03;47.09
28701;BME280;15877;52.344;16.790;2022-08-19T10:50:41;99949.77;;;32.14;46.89
28701;BME280;15877;52.344;16.790;2022-08-19T10:53:53;99949.06;;;32.26;46.84
28701;BME280;15877;52.344;16.790;2022-08-19T10:56:26;99948.29;;;32.24;46.39
28701;BME280;15877;52.344;16.790;2022-08-19T10:59:17;99941.70;;;32.19;46.13
28701;BME280;15877;52.344;16.790;2022-08-19T11:01:51;99949.99;;;32.31;45.87
28701;BME280;15877;52.344;16.790;2022-08-19T11:04:27;99948.73;;;32.35;46.11
28701;BME280;15877;52.344;16.790;2022-08-19T11:07:00;99949.22;;;32.41;45.60
28701;BME280;15877;52.344;16.790;2022-08-19T11:09:36;99944.44;;;32.52;45.41
28701;BME280;15877;52.344;16.790;2022-08-19T11:12:10;99944.00;;;32.58;45.31
28701;BME280;15877;52.344;16.790;2022-08-19T11:14:43;99951.48;;;32.62;44.97
28701;BME280;15877;52.344;16.790;2022-08-19T11:17:15;99938.50;;;32.64;44.69
28701;BME280;15877;52.344;16.790;2022-08-19T11:19:48;99943.98;;;32.84;44.46
28701;BME280;15877;52.344;16.790;2022-08-19T11:22:20;99935.58;;;32.97;43.89
28701;BME280;15877;52.344;16.790;2022-08-19T11:24:53;99939.21;;;33.04;43.29
28701;BME280;15877;52.344;16.790;2022-08-19T11:27:26;99948.27;;;33.10;43.49
28701;BME280;15877;52.344;16.790;2022-08-19T11:29:59;99953.88;;;33.11;43.03
28701;BME280;15877;52.344;16.790;2022-08-19T11:32:36;99952.80;;;33.07;42.91
28701;BME280;15877;52.344;16.790;2022-08-19T11:35:09;99956.04;;;32.96;42.96
28701;BME280;15877;52.344;16.790;2022-08-19T11:37:42;99958.10;;;33.04;42.76
28701;BME280;15877;52.344;16.790;2022-08-19T11:40:15;99960.83;;;33.13;42.68
28701;BME280;15877;52.344;16.790;2022-08-19T11:42:47;99962.73;;;33.21;42.90
28701;BME280;15877;52.344;16.790;2022-08-19T11:45:29;99965.80;;;33.26;42.53
28701;BME280;15877;52.344;16.790;2022-08-19T11:48:02;99966.89;;;33.33;42.33
28701;BME280;15877;52.344;16.790;2022-08-19T11:50:34;99951.91;;;33.28;42.42
28701;BME280;15877;52.344;16.790;2022-08-19T11:53:08;99966.32;;;33.36;42.81
28701;BME280;15877;52.344;16.790;2022-08-19T11:55:42;99973.63;;;33.40;42.36
28701;BME280;15877;52.344;16.790;2022-08-19T11:58:16;99962.59;;;33.27;42.93
28701;BME280;15877;52.344;16.790;2022-08-19T12:00:49;99974.27;;;33.36;42.95
28701;BME280;15877;52.344;16.790;2022-08-19T12:03:21;99968.02;;;33.42;42.44
28701;BME280;15877;52.344;16.790;2022-08-19T12:05:54;99968.44;;;33.40;42.72
28701;BME280;15877;52.344;16.790;2022-08-19T12:08:27;99981.19;;;33.38;42.73
28701;BME280;15877;52.344;16.790;2022-08-19T12:11:00;99981.05;;;33.33;42.90
28701;BME280;15877;52.344;16.790;2022-08-19T12:13:33;99979.84;;;33.31;43.27
28701;BME280;15877;52.344;16.790;2022-08-19T12:16:10;99976.23;;;33.46;43.85
28701;BME280;15877;52.344;16.790;2022-08-19T12:18:43;99986.52;;;33.50;43.74
28701;BME280;15877;52.344;16.790;2022-08-19T12:21:19;99987.52;;;33.57;43.89
28701;BME280;15877;52.344;16.790;2022-08-19T12:23:52;99982.11;;;33.53;43.89
28701;BME280;15877;52.344;16.790;2022-08-19T12:26:26;99985.05;;;33.43;43.97
28701;BME280;15877;52.344;16.790;2022-08-19T12:29:00;99986.17;;;33.54;44.74
28701;BME280;15877;52.344;16.790;2022-08-19T12:31:32;99995.17;;;33.58;44.03
28701;BME280;15877;52.344;16.790;2022-08-19T12:34:04;99992.55;;;33.58;44.45
28701;BME280;15877;52.344;16.790;2022-08-19T12:36:39;99995.32;;;33.60;43.79
28701;BME280;15877;52.344;16.790;2022-08-19T12:39:11;100003.16;;;33.50;43.86
28701;BME280;15877;52.344;16.790;2022-08-19T12:41:43;100001.56;;;33.58;44.25
28701;BME280;15877;52.344;16.790;2022-08-19T12:44:25;99995.83;;;33.40;44.19
28701;BME280;15877;52.344;16.790;2022-08-19T12:47:02;99994.62;;;33.18;44.54
28701;BME280;15877;52.344;16.790;2022-08-19T12:49:39;99996.70;;;33.07;44.37
28701;BME280;15877;52.344;16.790;2022-08-19T12:52:26;99999.90;;;32.85;44.63
28701;BME280;15877;52.344;16.790;2022-08-19T12:54:58;99992.06;;;32.62;45.22
28701;BME280;15877;52.344;16.790;2022-08-19T12:57:31;99996.88;;;32.62;45.47
28701;BME280;15877;52.344;16.790;2022-08-19T13:00:08;99999.98;;;32.67;45.65
28701;BME280;15877;52.344;16.790;2022-08-19T13:02:45;100001.28;;;32.56;45.02
28701;BME280;15877;52.344;16.790;2022-08-19T13:05:20;99999.83;;;32.71;45.53
28701;BME280;15877;52.344;16.790;2022-08-19T13:07:55;100005.57;;;32.77;45.08
28701;BME280;15877;52.344;16.790;2022-08-19T13:10:30;100006.55;;;32.68;45.11
28701;BME280;15877;52.344;16.790;2022-08-19T13:13:07;100003.16;;;32.59;45.32
28701;BME280;15877;52.344;16.790;2022-08-19T13:15:41;100000.30;;;32.42;45.49
28701;BME280;15877;52.344;16.790;2022-08-19T13:18:15;100000.23;;;32.36;46.14
28701;BME280;15877;52.344;16.790;2022-08-19T13:20:48;100003.36;;;32.31;45.96
28701;BME280;15877;52.344;16.790;2022-08-19T13:23:23;100003.70;;;32.41;45.57
28701;BME280;15877;52.344;16.790;2022-08-19T13:25:59;99998.63;;;32.42;45.57
28701;BME280;15877;52.344;16.790;2022-08-19T13:28:33;99999.98;;;32.51;45.71
28701;BME280;15877;52.344;16.790;2022-08-19T13:31:21;99999.27;;;32.59;45.75